createdAt,value
2022-09-04T06:39:35.263Z,21.9
2022-09-04T06:45:19.344Z,21.8
2022-09-04T06:50:57.257Z,21.8
2022-09-04T06:56:45.800Z,21.8
2022-09-04T07:02:23.859Z,21.8
2022-09-04T07:08:00.578Z,21.8
2022-09-04T07:13:21.843Z,21.8
2022-09-04T07:19:00.623Z,21.8
2022-09-04T07:24:37.879Z,21.8
2022-09-04T07:30:16.499Z,21.8
2022-09-04T07:35:54.467Z,21.8
2022-09-04T07:41:40.254Z,21.8
2022-09-04T07:47:18.277Z,21.8
2022-09-04T07:53:03.746Z,21.8
2022-09-04T07:58:48.684Z,21.8
2022-09-04T08:04:28.845Z,21.8
2022-09-04T08:10:13.085Z,21.8
2022-09-04T08:15:51.725Z,21.8
2022-09-04T08:21:29.591Z,21.8
2022-09-04T08:26:51.371Z,21.8
2022-09-04T08:32:36.742Z,21.8
2022-09-04T08:38:14.927Z,21.8
2022-09-04T08:43:39.841Z,21.8
2022-09-04T08:49:21.556Z,21.8
2022-09-04T08:54:45.582Z,21.8
2022-09-04T09:00:11.243Z,21.8
2022-09-04T09:05:18.355Z,21.9
2022-09-04T09:10:59.815Z,21.9
2022-09-04T09:16:24.444Z,21.9
2022-09-04T09:21:50.264Z,21.9
2022-09-04T09:27:31.598Z,21.9
2022-09-04T09:33:11.450Z,21.9
2022-09-04T09:38:37.881Z,21.9
2022-09-04T09:44:18.565Z,21.9
2022-09-04T09:50:06.119Z,21.9
2022-09-04T09:55:44.150Z,22
2022-09-04T10:01:32.520Z,22
2022-09-04T10:07:09.283Z,22
2022-09-04T10:12:51.205Z,22
2022-09-04T10:18:27.537Z,22
2022-09-04T10:24:08.932Z,22
2022-09-04T10:29:56.382Z,22.1
2022-09-04T10:35:40.986Z,22.1
2022-09-04T10:41:21.852Z,22.1
2022-09-04T11:10:09.358Z,22.2
2022-09-04T11:15:48.175Z,22.2
2022-09-04T11:21:13.424Z,22.2
2022-09-04T11:26:54.191Z,22.3
2022-09-04T11:32:32.681Z,22.3
2022-09-04T11:38:13.978Z,22.3
2022-09-04T11:43:53.582Z,22.3
2022-09-04T11:49:29.844Z,22.3
2022-09-04T11:55:07.250Z,22.4
2022-09-04T12:00:45.012Z,22.4
2022-09-04T12:06:23.541Z,22.5
2022-09-04T12:12:14.221Z,22.5
2022-09-04T12:18:10.001Z,22.5
2022-09-04T12:23:49.139Z,22.6
2022-09-04T12:29:37.716Z,22.6
2022-09-04T12:35:21.022Z,22.6
2022-09-04T12:40:58.547Z,22.6
2022-09-04T12:46:41.637Z,22.6
2022-09-04T12:52:20.193Z,22.6
2022-09-04T12:58:04.658Z,22.6
2022-09-04T13:03:36.859Z,22.6
2022-09-04T13:09:28.185Z,22.6
2022-09-04T13:15:15.485Z,22.6
2022-09-04T13:20:54.279Z,22.6
2022-09-04T13:26:24.342Z,22.6
2022-09-04T13:32:04.909Z,22.6
2022-09-04T13:37:48.964Z,22.6
2022-09-04T13:43:26.773Z,22.7
2022-09-04T13:49:12.588Z,22.7
2022-09-04T13:54:55.189Z,22.7
2022-09-04T14:00:44.948Z,22.7
2022-09-04T14:06:24.208Z,22.8
2022-09-04T14:12:06.789Z,22.7
2022-09-04T14:17:50.654Z,22.7
2022-09-04T14:23:47.376Z,22.7
2022-09-04T14:29:31.792Z,22.8
2022-09-04T14:35:32.130Z,22.8
2022-09-04T14:41:09.283Z,22.8
2022-09-04T14:46:50.851Z,22.8
2022-09-04T14:52:36.577Z,22.8
2022-09-04T14:58:14.894Z,22.8
2022-09-04T15:03:55.123Z,22.8
2022-09-04T15:10:04.859Z,22.8
2022-09-04T15:15:59.794Z,22.8
2022-09-04T18:54:43.051Z,22.3
2022-09-04T19:00:33.508Z,22.3
2022-09-04T19:06:35.242Z,22.3
2022-09-04T19:12:33.608Z,22.2
2022-09-04T19:18:42.259Z,22.2
2022-09-04T19:24:42.469Z,22.1
2022-09-04T19:30:52.345Z,22.1
2022-09-04T19:36:38.946Z,22.1
2022-09-04T19:56:14.187Z,22.1
2022-09-04T20:03:28.448Z,22.1
2022-09-04T20:09:25.613Z,22.1
2022-09-04T20:15:20.977Z,22.1
2022-09-04T20:21:18.938Z,22.1
2022-09-04T20:27:29.881Z,22.1
2022-09-04T20:33:20.883Z,22.1
2022-09-04T20:39:04.027Z,22.1
2022-09-04T20:44:53.873Z,22
2022-09-04T21:04:58.474Z,22
2022-09-04T21:09:55.230Z,21.9
2022-09-04T21:16:08.690Z,21.8
2022-09-04T21:22:10.028Z,21.8
2022-09-04T21:28:23.475Z,21.8
2022-09-04T21:34:43.338Z,21.8
2022-09-04T21:41:23.633Z,21.8
2022-09-04T21:47:25.174Z,21.8
2022-09-04T21:53:50.754Z,21.8
2022-09-04T22:14:53.514Z,21.9
2022-09-04T22:20:42.324Z,21.9
2022-09-04T22:26:39.451Z,21.9
2022-09-04T22:33:10.552Z,22
2022-09-04T22:39:14.826Z,22
2022-09-04T22:45:26.887Z,22
2022-09-04T22:51:40.189Z,22.1
2022-09-04T22:58:02.806Z,22.1
2022-09-04T23:04:39.803Z,22.1
2022-09-04T23:26:59.011Z,22.1
2022-09-04T23:33:43.834Z,22.2
2022-09-04T23:39:57.390Z,22.2
2022-09-04T23:46:05.151Z,22.2
2022-09-04T23:52:09.344Z,22.2
2022-09-04T23:58:17.357Z,22.2
